This is the latest recevied weather packets stored in our database for station/object DM4XI-13. If no packets are shown the sender has not sent any weather packets the latest 1 day(s).
| Time | Temp. | Humidity | Pressure | Rain* | Wind** | Luminosity | Snow |
|---|---|---|---|---|---|---|---|
| 1778067738 | 19.44° C | 53% | 1004.2 hPa | 0 mm | 0.89 m/s, 206° | 481 W/m² | - |
| 1778067677 | 19.44° C | 55% | 1004.2 hPa | 0 mm | 1.79 m/s, 164° | 570 W/m² | - |
| 1778067616 | 18.89° C | 53% | 1004.2 hPa | 0 mm | 1.79 m/s, 185° | 559 W/m² | - |
| 1778067494 | 19.44° C | 53% | 1004.2 hPa | 0 mm | 0.89 m/s, 187° | 494 W/m² | - |
| 1778067433 | 19.44° C | 53% | 1004.3 hPa | 0 mm | 1.79 m/s, 177° | 528 W/m² | - |
| 1778067311 | 18.89° C | 53% | 1004.2 hPa | 0 mm | 0.45 m/s, 180° | 415 W/m² | - |
| 1778067250 | 18.89° C | 53% | 1004.1 hPa | 0 mm | 0.45 m/s, 184° | 316 W/m² | - |
| 1778067067 | 18.33° C | 55% | 1004.3 hPa | 0 mm | 0 m/s | 274 W/m² | - |
| 1778066946 | 18.33° C | 56% | 1004.3 hPa | 0 mm | 0.45 m/s, 174° | 287 W/m² | - |
| 1778066640 | 18.33° C | 55% | 1004.5 hPa | 0 mm | 1.34 m/s, 167° | 294 W/m² | - |
| 1778066457 | 18.33° C | 55% | 1004.5 hPa | 0 mm | 0.45 m/s, 157° | 292 W/m² | - |
| 1778066396 | 18.33° C | 56% | 1004.4 hPa | 0 mm | 0.89 m/s, 185° | 299 W/m² | - |
| 1778066335 | 18.33° C | 57% | 1004.4 hPa | 0 mm | 0 m/s | 290 W/m² | - |
| 1778066274 | 18.33° C | 57% | 1004.5 hPa | 0 mm | 0.89 m/s, 181° | 288 W/m² | - |
| 1778066152 | 17.78° C | 59% | 1004.7 hPa | 0 mm | 0.45 m/s, 181° | 276 W/m² | - |
| 1778066091 | 17.78° C | 57% | 1004.5 hPa | 0 mm | 0.45 m/s, 181° | 271 W/m² | - |
| 1778065969 | 17.78° C | 56% | 1004.5 hPa | 0 mm | 0 m/s | 261 W/m² | - |
| 1778065908 | 17.78° C | 57% | 1004.5 hPa | 0 mm | 0 m/s | 259 W/m² | - |
| 1778065847 | 17.78° C | 57% | 1004.5 hPa | 0 mm | 0.89 m/s, 144° | 259 W/m² | - |
| 1778065725 | 17.78° C | 58% | 1004.6 hPa | 0 mm | 1.34 m/s, 170° | 259 W/m² | - |
| 1778065664 | 17.78° C | 57% | 1004.6 hPa | 0 mm | 1.34 m/s, 145° | 259 W/m² | - |
| 1778065603 | 17.78° C | 58% | 1004.8 hPa | 0 mm | 1.79 m/s, 182° | 257 W/m² | - |
| 1778065237 | 18.33° C | 56% | 1004.7 hPa | 0 mm | 0.89 m/s, 173° | 267 W/m² | - |
| 1778065176 | 18.33° C | 56% | 1004.8 hPa | 0 mm | 0.45 m/s, 186° | 282 W/m² | - |
| 1778064932 | 18.33° C | 57% | 1004.7 hPa | 0 mm | 1.79 m/s, 163° | 332 W/m² | - |
* Rain latest hour (hover to see other rain measurements)
** Current wind speed in m/s (hover to see current wind gust speed)